»·PEaware :: N16RD 49X-L52

N16RD :: 49X-L52

FLIGHT INFORMATION

Flight Status: Arrived
Operator: Privately registered:
United States
More flights under this callsign
Pilot: Brett B. (12105)
Aircraft: CIRRUS SR-22
(SR22)
More flights by this aircraft type
Origin: 49X Chemehuevi Valley
United States
Destination: L52 Oceano Co
United States
More flights between these airports :: More routes between these airports
Route:
File this flight plan on PilotEdge
Remarks:
Altitude:
(Current/Filed)
14,500ft
Speed:
(Current/Filed)
175kts
Departed: 24-May-19 02:42 PM
Arrived: 24-May-19 03:48 PM
Distance/Time
Traveled:
97nm/1:05
Distance/Time
To Go:
Arrived

Flight Plot

Page will automatically refresh every two minutes.


Map Options




Map Legend


Flown Route
Filed Route
Departure Airport
Arrival Airport
Navaid (VOR, NDB)
Fix

Horizontal Profiles

Position Reports

Time Latitude Longitude Heading Altitude Ground
Speed
24-May-19 14:37 34.535468 -114.431941 180 635ft 0kts
24-May-19 14:39 34.535468 -114.431941 180 635ft 0kts
24-May-19 14:39 34.535468 -114.431941 180 635ft 0kts
24-May-19 14:40 34.535468 -114.431941 180 635ft 0kts
24-May-19 14:41 34.516714 -114.431720 179 876ft 150kts
24-May-19 14:42 34.484823 -114.453474 267 1991ft 155kts
24-May-19 14:43 34.485225 -114.508127 270 3502ft 161kts
24-May-19 14:44 34.485156 -114.564644 267 4994ft 167kts
24-May-19 14:45 34.475232 -114.621283 251 6532ft 197kts
24-May-19 14:46 34.454826 -114.689920 249 8059ft 223kts
24-May-19 14:47 34.432676 -114.761272 248 9552ft 223kts
24-May-19 14:48 34.410826 -114.831151 247 11039ft 218kts
24-May-19 14:49 34.389465 -114.899212 247 12394ft 220kts
24-May-19 14:50 34.366416 -114.972437 247 12516ft 238kts
24-May-19 14:51 34.342606 -115.048006 247 12534ft 245kts
24-May-19 14:52 34.349226 -115.122707 323 12540ft 255kts
24-May-19 14:53 34.385235 -115.187329 268 12546ft 248kts
24-May-19 14:54 34.381497 -115.270684 262 12546ft 248kts
24-May-19 14:55 34.393808 -115.352034 292 12554ft 251kts
24-May-19 14:56 34.425233 -115.427006 309 12563ft 250kts
24-May-19 14:57 34.473551 -115.488842 308 12569ft 256kts
24-May-19 14:58 34.519257 -115.555699 308 12557ft 254kts
24-May-19 14:59 34.563293 -115.620591 308 12563ft 238kts
24-May-19 15:00 34.605266 -115.682356 308 12551ft 214kts
24-May-19 15:01 34.618732 -115.756713 263 12573ft 248kts
24-May-19 15:02 34.627439 -115.837501 297 12591ft 256kts
24-May-19 15:03 34.670952 -115.910183 308 11501ft 281kts
24-May-19 15:04 34.707505 -115.992201 288 10482ft 266kts
24-May-19 15:05 34.731001 -116.075482 288 10465ft 257kts
24-May-19 15:06 34.747164 -116.133381 288 10474ft 258kts
24-May-19 15:07 34.770178 -116.216231 287 10483ft 256kts
24-May-19 15:08 34.784928 -116.300230 274 10488ft 252kts
24-May-19 15:09 34.779799 -116.383455 255 10479ft 243kts
24-May-19 15:10 34.771362 -116.462472 284 10487ft 246kts
24-May-19 15:11 34.792642 -116.541857 288 10469ft 247kts
24-May-19 15:12 34.808412 -116.623184 278 10460ft 248kts
24-May-19 15:13 34.818999 -116.705750 278 10457ft 244kts
24-May-19 15:14 34.829522 -116.788569 278 10440ft 244kts
24-May-19 15:15 34.840081 -116.872227 278 10441ft 253kts
24-May-19 15:16 34.850774 -116.957459 278 10454ft 259kts
24-May-19 15:17 34.861630 -117.044036 278 10449ft 260kts
24-May-19 15:18 34.872385 -117.130397 278 10456ft 255kts
24-May-19 15:19 34.878611 -117.217107 269 10446ft 257kts
24-May-19 15:20 34.877048 -117.304446 268 10452ft 259kts
24-May-19 15:21 34.879402 -117.475249 273 10448ft 260kts
24-May-19 15:22 34.887793 -117.641979 273 10478ft 262kts
24-May-19 15:23 34.896403 -117.815585 273 10460ft 262kts
24-May-19 15:24 34.904968 -117.988480 273 10474ft 257kts
24-May-19 15:25 34.927256 -118.159686 283 10488ft 257kts
24-May-19 15:26 34.960316 -118.328619 283 10521ft 257kts
24-May-19 15:27 34.993089 -118.497155 280 10549ft 255kts
24-May-19 15:28 35.014700 -118.668530 278 10548ft 256kts
24-May-19 15:29 35.035605 -118.840684 278 10546ft 256kts
24-May-19 15:30 35.057852 -119.021634 278 8105ft 288kts
24-May-19 15:31 35.079084 -119.195427 278 6506ft 253kts
24-May-19 15:32 35.099526 -119.365816 278 6509ft 260kts
24-May-19 15:33 35.111582 -119.534245 264 6797ft 253kts
24-May-19 15:34 35.095863 -119.705625 264 6791ft 261kts
24-May-19 15:35 35.079946 -119.877324 264 6804ft 252kts
24-May-19 15:36 35.063973 -120.047642 264 6812ft 254kts
24-May-19 15:37 35.048671 -120.212885 264 6822ft 254kts
24-May-19 15:38 35.041476 -120.290715 264 5750ft 271kts
24-May-19 15:39 35.035718 -120.352948 264 4442ft 226kts
24-May-19 15:40 35.029704 -120.420538 264 3428ft 165kts
24-May-19 15:41 35.026866 -120.471238 281 2217ft 135kts
24-May-19 15:42 35.040264 -120.509546 300 1057ft 101kts
24-May-19 15:43 35.053714 -120.538646 299 1195ft 106kts
24-May-19 15:44 35.071491 -120.567974 311 1199ft 107kts
24-May-19 15:45 35.086752 -120.595346 303 393ft 90kts
24-May-19 15:46 35.100497 -120.620426 303 18ft 58kts
24-May-19 15:47 35.103845 -120.625133 43 18ft 0kts
24-May-19 15:48 35.103845 -120.625133 43 18ft 0kts
24-May-19 15:49 35.103845 -120.625133 43 18ft 0kts
24-May-19 15:50 35.103845 -120.625133 43 18ft 0kts
24-May-19 15:51 35.103845 -120.625133 43 18ft 0kts
24-May-19 15:52 35.103845 -120.625133 43 18ft 0kts
24-May-19 15:53 35.103845 -120.625133 43 18ft 0kts
24-May-19 15:54 35.800506 -115.636067 134 2599ft 0kts
24-May-19 15:55 35.800506 -115.636067 134 2599ft 0kts
24-May-19 15:56 35.800506 -115.636067 134 2599ft 0kts
24-May-19 15:57 35.800506 -115.636067 134 2599ft 0kts
24-May-19 15:58 35.800506 -115.636067 134 2599ft 0kts
24-May-19 15:59 35.800506 -115.636067 134 2599ft 0kts
24-May-19 16:00 35.800506 -115.636067 134 2599ft 0kts
24-May-19 16:01 35.800506 -115.636067 134 2599ft 0kts

Navigation Log

Ident Type
Flight plan parsing failed, navigation log unavailable